Time;durP1;ratioP1;P1;durP2;ratioP2;P2;SDS_P1;SDS_P2;PMS_P1;PMS_P2;Temp;Humidity;BMP_temperature;BMP_pressure;BME280_temperature;BME280_humidity;BME280_pressure;Samples;Min_cycle;Max_cycle;Signal;HPM_P1;HPM_P2
2022/08/26 00:01:02;;;;;;;42.67;38.17;;;22.00;99.90;;;;;;5011139;28;20042;-71
2022/08/26 00:03:47;;;;;;;44.00;39.58;;;22.00;99.90;;;;;;4994477;28;20042;-71
2022/08/26 00:06:34;;;;;;;45.38;40.53;;;21.90;99.90;;;;;;4992370;28;20474;-72
2022/08/26 00:09:20;;;;;;;44.60;40.28;;;21.90;99.90;;;;;;5011812;28;20444;-72
2022/08/26 00:12:07;;;;;;;44.67;40.38;;;21.90;99.90;;;;;;4992058;28;20484;-72
2022/08/26 00:14:53;;;;;;;45.53;40.90;;;21.80;99.90;;;;;;4992576;28;20045;-72
2022/08/26 00:17:39;;;;;;;49.63;41.65;;;21.80;99.90;;;;;;5014686;28;20137;-71
2022/08/26 00:20:29;;;;;;;42.95;38.47;;;21.70;99.90;;;;;;5008835;28;20488;-72
2022/08/26 00:23:16;;;;;;;43.70;39.50;;;21.80;99.90;;;;;;4993994;28;20045;-71
2022/08/26 00:26:03;;;;;;;47.08;42.13;;;21.70;99.90;;;;;;4983971;28;20101;-71
2022/08/26 00:28:49;;;;;;;47.40;42.63;;;21.70;99.90;;;;;;5008472;28;20042;-71
2022/08/26 00:31:35;;;;;;;46.40;41.70;;;21.70;99.90;;;;;;5010206;28;20050;-71
2022/08/26 00:34:21;;;;;;;47.67;42.88;;;21.70;99.90;;;;;;5010663;28;20046;-72
2022/08/26 00:37:08;;;;;;;47.75;42.70;;;21.60;99.90;;;;;;4994686;28;20057;-71
2022/08/26 00:39:54;;;;;;;49.13;44.22;;;21.60;99.90;;;;;;4991723;28;20405;-71
2022/08/26 00:42:40;;;;;;;48.50;43.33;;;21.50;99.90;;;;;;4991544;28;20046;-70
2022/08/26 00:45:32;;;;;;;48.42;43.45;;;21.50;99.90;;;;;;4992225;28;20050;-71
2022/08/26 00:48:21;;;;;;;47.78;42.92;;;21.40;99.90;;;;;;4989679;28;20608;-72
2022/08/26 00:51:17;;;;;;;47.20;42.10;;;21.40;99.90;;;;;;5008221;28;20046;-72
2022/08/26 00:54:08;;;;;;;48.60;41.97;;;21.40;99.90;;;;;;4996017;28;20080;-71
2022/08/26 00:56:59;;;;;;;47.03;41.93;;;21.30;99.90;;;;;;5009945;28;20144;-71
2022/08/26 00:59:50;;;;;;;46.20;41.08;;;21.40;99.90;;;;;;5004995;28;20045;-72
2022/08/26 01:02:38;;;;;;;47.78;41.38;;;21.30;99.90;;;;;;5010216;28;20168;-72
2022/08/26 01:05:24;;;;;;;45.97;40.97;;;21.40;99.90;;;;;;5015900;28;20056;-72
2022/08/26 01:08:10;;;;;;;48.50;41.63;;;21.40;99.90;;;;;;5010961;28;20112;-71
2022/08/26 01:10:59;;;;;;;44.88;40.28;;;21.40;99.90;;;;;;4995613;28;20046;-71
2022/08/26 01:13:46;;;;;;;44.35;38.00;;;21.40;99.90;;;;;;4994387;28;20056;-72
2022/08/26 01:16:32;;;;;;;45.05;38.38;;;21.50;99.90;;;;;;5005594;28;20045;-72
2022/08/26 01:19:25;;;;;;;43.63;38.83;;;21.50;99.90;;;;;;5000167;28;20424;-72
2022/08/26 01:22:20;;;;;;;48.08;38.00;;;21.40;99.90;;;;;;5012048;28;20393;-72
2022/08/26 01:25:06;;;;;;;44.28;35.63;;;21.40;99.90;;;;;;4996293;28;20053;-72
2022/08/26 01:27:56;;;;;;;40.28;35.10;;;21.40;99.90;;;;;;5025811;28;20042;-72
2022/08/26 01:30:44;;;;;;;43.55;34.55;;;21.40;99.90;;;;;;5002271;28;20042;-72
2022/08/26 01:33:54;;;;;;;44.33;35.22;;;21.40;99.90;;;;;;4994702;28;20049;-72
2022/08/26 01:36:40;;;;;;;43.38;32.92;;;21.40;99.90;;;;;;5000615;28;20049;-72
2022/08/26 01:39:27;;;;;;;41.05;33.30;;;21.50;99.90;;;;;;5014225;28;20053;-72
2022/08/26 01:42:15;;;;;;;42.08;32.50;;;21.40;99.90;;;;;;4993180;28;20493;-72
2022/08/26 01:45:09;;;;;;;40.42;31.55;;;21.40;99.90;;;;;;4985079;28;20050;-72
2022/08/26 01:47:58;;;;;;;42.50;31.13;;;21.40;99.90;;;;;;4994937;28;20077;-72
2022/08/26 01:50:45;;;;;;;35.17;29.92;;;21.40;99.90;;;;;;4994685;28;20120;-72
2022/08/26 01:53:31;;;;;;;34.58;29.85;;;21.50;99.90;;;;;;4997178;28;20056;-72
2022/08/26 01:56:18;;;;;;;38.97;31.08;;;21.40;99.90;;;;;;5015343;28;20052;-72
2022/08/26 01:59:09;;;;;;;35.78;29.10;;;21.40;99.90;;;;;;5002707;28;20087;-72
2022/08/26 02:01:55;;;;;;;38.88;28.95;;;21.40;99.90;;;;;;5018474;28;20068;-72
2022/08/26 02:04:50;;;;;;;37.85;28.02;;;21.40;99.90;;;;;;5006178;28;20049;-72
2022/08/26 02:07:38;;;;;;;38.88;27.95;;;21.40;99.90;;;;;;5001511;28;20096;-71
2022/08/26 02:10:24;;;;;;;39.58;28.23;;;21.40;99.90;;;;;;5014886;28;20095;-72
2022/08/26 02:13:10;;;;;;;34.95;26.58;;;21.40;99.90;;;;;;4999733;28;20057;-72
2022/08/26 02:15:59;;;;;;;37.17;27.65;;;21.40;99.90;;;;;;5003710;28;20057;-71
2022/08/26 02:18:46;;;;;;;34.88;26.63;;;21.40;99.90;;;;;;5002098;28;20050;-72
2022/08/26 02:21:32;;;;;;;34.60;26.20;;;21.40;99.90;;;;;;5018418;28;20598;-72
2022/08/26 02:24:22;;;;;;;37.25;26.65;;;21.40;99.90;;;;;;4996070;28;20041;-72
2022/08/26 02:27:07;;;;;;;34.72;26.20;;;21.30;99.90;;;;;;4999437;28;20045;-72
2022/08/26 02:30:05;;;;;;;34.28;23.88;;;21.30;99.90;;;;;;5015929;28;20078;-72
2022/08/26 02:32:52;;;;;;;37.60;25.20;;;21.30;99.90;;;;;;4998636;28;20107;-72
2022/08/26 02:35:38;;;;;;;35.53;26.05;;;21.30;99.90;;;;;;5004178;28;20541;-72
2022/08/26 02:38:24;;;;;;;31.98;24.55;;;21.40;99.90;;;;;;4975954;28;20130;-72
2022/08/26 02:41:10;;;;;;;35.00;24.02;;;21.30;99.90;;;;;;4974547;28;20490;-72
2022/08/26 02:43:56;;;;;;;31.55;22.75;;;21.30;99.90;;;;;;4984223;28;20050;-72
2022/08/26 02:46:42;;;;;;;25.58;21.05;;;21.30;99.90;;;;;;4988387;28;20484;-72
2022/08/26 02:49:29;;;;;;;31.50;22.33;;;21.20;99.90;;;;;;4994166;28;20050;-72
2022/08/26 02:52:15;;;;;;;27.73;21.55;;;21.20;99.90;;;;;;4994800;28;20049;-72
2022/08/26 02:55:01;;;;;;;28.23;20.42;;;21.20;99.90;;;;;;5010558;28;20049;-72
2022/08/26 02:57:47;;;;;;;33.42;20.10;;;21.30;99.90;;;;;;4994453;28;20053;-72
2022/08/26 03:00:36;;;;;;;29.13;19.55;;;21.30;99.90;;;;;;4992962;28;20053;-72
2022/08/26 03:03:22;;;;;;;25.92;18.42;;;21.20;99.90;;;;;;4991241;28;20050;-72
2022/08/26 03:06:08;;;;;;;31.35;19.67;;;21.30;99.90;;;;;;4986940;28;20052;-72
2022/08/26 03:08:54;;;;;;;28.55;18.92;;;21.30;99.90;;;;;;5012036;28;20061;-72
2022/08/26 03:11:40;;;;;;;33.28;18.60;;;21.30;99.90;;;;;;4994527;28;20045;-72
2022/08/26 03:14:27;;;;;;;26.17;16.95;;;21.40;99.90;;;;;;5000148;28;20054;-73
2022/08/26 03:17:13;;;;;;;29.92;17.75;;;21.30;99.90;;;;;;4995381;28;20050;-72
2022/08/26 03:20:00;;;;;;;24.23;16.98;;;21.30;99.90;;;;;;4993855;28;20485;-72
2022/08/26 03:22:46;;;;;;;26.98;16.75;;;21.30;99.90;;;;;;4998032;28;20056;-72
2022/08/26 03:25:32;;;;;;;26.00;16.88;;;21.30;99.90;;;;;;4990741;28;20046;-72
2022/08/26 03:28:18;;;;;;;24.58;15.73;;;21.30;99.90;;;;;;4977548;28;20521;-72
2022/08/26 03:31:04;;;;;;;24.95;16.73;;;21.30;99.90;;;;;;4980683;28;20114;-72
2022/08/26 03:33:50;;;;;;;26.77;15.95;;;21.30;99.90;;;;;;4973361;28;20057;-72
2022/08/26 03:36:37;;;;;;;29.00;16.58;;;21.20;99.90;;;;;;4996322;28;20683;-72
2022/08/26 03:39:23;;;;;;;29.52;16.70;;;21.30;99.90;;;;;;4997398;28;20081;-72
2022/08/26 03:42:10;;;;;;;26.30;16.20;;;21.30;99.90;;;;;;4996378;28;20145;-72
2022/08/26 03:44:56;;;;;;;23.83;15.45;;;21.30;99.90;;;;;;4984762;28;20050;-72
2022/08/26 03:47:42;;;;;;;24.10;16.05;;;21.30;99.90;;;;;;4993651;28;20042;-72
2022/08/26 03:50:28;;;;;;;30.25;16.42;;;21.40;99.90;;;;;;4989851;28;20458;-72
2022/08/26 03:53:14;;;;;;;25.65;15.40;;;21.40;99.90;;;;;;5006624;28;20488;-72
2022/08/26 03:56:00;;;;;;;28.70;15.13;;;21.30;99.90;;;;;;4986205;28;20180;-72
2022/08/26 03:58:46;;;;;;;25.70;14.85;;;21.30;99.90;;;;;;5013214;28;20496;-72
2022/08/26 04:01:32;;;;;;;25.17;14.70;;;21.30;99.90;;;;;;5014715;28;20053;-72
2022/08/26 04:04:18;;;;;;;20.88;13.65;;;21.30;99.90;;;;;;4999494;28;20084;-72
2022/08/26 04:07:04;;;;;;;22.35;13.85;;;21.40;99.90;;;;;;4996119;28;20416;-72
2022/08/26 04:09:53;;;;;;;25.77;14.95;;;21.40;99.90;;;;;;4996608;28;20046;-72
2022/08/26 04:12:39;;;;;;;24.42;13.80;;;21.40;99.90;;;;;;4997540;28;20480;-72
2022/08/26 04:15:26;;;;;;;26.20;14.10;;;21.40;99.90;;;;;;4997652;28;20049;-72
2022/08/26 04:18:11;;;;;;;24.98;13.60;;;21.40;99.90;;;;;;4983947;28;20057;-72
2022/08/26 04:20:57;;;;;;;21.52;13.18;;;21.30;99.90;;;;;;4996920;28;20599;-72
2022/08/26 04:23:43;;;;;;;21.13;12.57;;;21.40;99.90;;;;;;5013442;28;20046;-72
2022/08/26 04:26:35;;;;;;;25.30;14.00;;;21.40;99.90;;;;;;4984502;28;20054;-72
2022/08/26 04:29:24;;;;;;;25.42;13.32;;;21.40;99.90;;;;;;4978008;28;20568;-72
2022/08/26 04:32:10;;;;;;;22.95;12.50;;;21.30;99.90;;;;;;4996578;28;20087;-72
2022/08/26 04:34:56;;;;;;;20.63;12.05;;;21.30;99.90;;;;;;5013680;28;20052;-72
2022/08/26 04:37:42;;;;;;;21.38;11.82;;;21.30;99.90;;;;;;4995206;28;20050;-72
2022/08/26 04:40:28;;;;;;;20.50;11.48;;;21.40;99.90;;;;;;4995166;28;20046;-72
2022/08/26 04:43:14;;;;;;;19.60;11.27;;;21.30;99.90;;;;;;4995747;28;20049;-72
2022/08/26 04:46:03;;;;;;;18.20;10.70;;;21.40;99.90;;;;;;5013061;28;20121;-72
2022/08/26 04:48:51;;;;;;;20.58;10.98;;;21.30;99.90;;;;;;4996001;28;20148;-73
2022/08/26 04:51:38;;;;;;;24.25;11.60;;;21.30;99.90;;;;;;5013420;28;20501;-72
2022/08/26 04:54:24;;;;;;;21.00;10.70;;;21.30;99.90;;;;;;5013136;28;20053;-72
2022/08/26 04:57:10;;;;;;;19.95;11.10;;;21.30;99.90;;;;;;4993042;28;20066;-72
2022/08/26 04:59:56;;;;;;;21.92;11.60;;;21.30;99.90;;;;;;5005672;28;20156;-73
2022/08/26 05:02:42;;;;;;;18.33;11.75;;;21.30;99.90;;;;;;4991880;28;20050;-73
2022/08/26 05:05:28;;;;;;;26.48;10.95;;;21.20;99.90;;;;;;4995234;28;20045;-72
2022/08/26 05:08:15;;;;;;;21.08;10.70;;;21.30;99.90;;;;;;4995627;28;20042;-72
2022/08/26 05:11:04;;;;;;;21.67;10.90;;;21.30;99.90;;;;;;4995707;28;20045;-72
2022/08/26 05:13:50;;;;;;;16.58;10.48;;;21.20;99.90;;;;;;4996172;28;20049;-72
2022/08/26 05:16:36;;;;;;;18.00;10.38;;;21.30;99.90;;;;;;4995321;28;20082;-72
2022/08/26 05:19:22;;;;;;;25.27;10.55;;;21.30;99.90;;;;;;4995241;28;20045;-72
2022/08/26 05:22:08;;;;;;;20.75;10.30;;;21.30;99.90;;;;;;5012762;28;20037;-72
2022/08/26 05:24:54;;;;;;;21.35;9.85;;;21.30;99.90;;;;;;4994001;28;20192;-72
2022/08/26 05:27:40;;;;;;;17.85;9.55;;;21.30;99.90;;;;;;4980709;28;20049;-72
2022/08/26 05:30:28;;;;;;;15.65;9.07;;;21.40;99.90;;;;;;4991519;28;20457;-72
2022/08/26 05:33:16;;;;;;;22.08;8.85;;;21.40;99.90;;;;;;4988936;28;20474;-72
2022/08/26 05:36:09;;;;;;;19.95;8.98;;;21.40;99.90;;;;;;5016848;28;20056;-72
2022/08/26 05:38:56;;;;;;;15.60;8.85;;;21.40;99.90;;;;;;4993551;28;20493;-72
2022/08/26 05:41:42;;;;;;;21.05;8.52;;;21.50;99.90;;;;;;5001546;28;20184;-72
2022/08/26 05:44:28;;;;;;;18.17;7.90;;;21.40;99.90;;;;;;5012046;28;20068;-72
2022/08/26 05:47:14;;;;;;;14.73;8.18;;;21.40;99.90;;;;;;5011821;28;20731;-72
2022/08/26 05:50:04;;;;;;;15.98;7.90;;;21.50;99.90;;;;;;5012205;28;20045;-72
2022/08/26 05:52:50;;;;;;;17.90;8.25;;;21.50;99.90;;;;;;5012551;28;20038;-72
2022/08/26 05:55:45;;;;;;;16.55;7.63;;;21.60;99.90;;;;;;5012071;28;20038;-72
2022/08/26 05:58:32;;;;;;;17.10;7.85;;;21.60;99.90;;;;;;5010907;28;20057;-72
2022/08/26 06:01:21;;;;;;;12.82;6.95;;;21.70;99.90;;;;;;4986699;28;20056;-72
2022/08/26 06:04:07;;;;;;;12.07;6.53;;;21.60;99.90;;;;;;4992475;28;20449;-72
2022/08/26 06:06:52;;;;;;;17.25;6.70;;;21.60;99.90;;;;;;4986273;28;20549;-73
2022/08/26 06:09:39;;;;;;;18.42;6.78;;;21.60;99.90;;;;;;4998305;28;20045;-72
2022/08/26 06:12:24;;;;;;;12.35;6.88;;;21.70;99.90;;;;;;5010882;28;20049;-72
2022/08/26 06:15:10;;;;;;;15.02;6.32;;;21.70;99.90;;;;;;5011926;28;20042;-72
2022/08/26 06:17:56;;;;;;;15.50;6.32;;;21.70;99.90;;;;;;4994446;28;20054;-72
2022/08/26 06:20:44;;;;;;;14.65;6.43;;;21.80;99.90;;;;;;4993875;28;20437;-72
2022/08/26 06:26:57;;;;;;;18.27;6.85;;;21.80;99.90;;;;;;4972781;28;20501;-72
2022/08/26 06:29:43;;;;;;;17.35;6.28;;;21.90;99.90;;;;;;4992305;28;20054;-72
2022/08/26 06:32:28;;;;;;;13.98;6.13;;;21.90;99.90;;;;;;5011992;28;20136;-72
2022/08/26 06:35:14;;;;;;;12.82;6.00;;;22.00;99.90;;;;;;5012648;28;20413;-72
2022/08/26 06:38:01;;;;;;;13.85;6.03;;;22.00;99.90;;;;;;5011350;28;20050;-72
2022/08/26 06:40:49;;;;;;;15.57;5.88;;;22.00;99.90;;;;;;5010513;28;20037;-72
2022/08/26 06:43:35;;;;;;;14.25;5.95;;;22.10;99.90;;;;;;5011122;28;20046;-73
2022/08/26 06:46:21;;;;;;;16.60;5.82;;;22.10;99.90;;;;;;4993682;28;20727;-72
2022/08/26 06:49:08;;;;;;;15.68;5.80;;;22.10;99.90;;;;;;4997007;28;20053;-72
2022/08/26 06:51:58;;;;;;;16.98;5.68;;;22.10;99.90;;;;;;5014437;28;20045;-72
2022/08/26 06:54:44;;;;;;;16.45;5.93;;;22.10;99.90;;;;;;5015459;28;20076;-72
2022/08/26 06:57:31;;;;;;;15.50;5.65;;;22.20;99.90;;;;;;5014286;28;20170;-72
2022/08/26 07:00:18;;;;;;;17.20;6.15;;;22.30;99.90;;;;;;5013417;28;20460;-72
2022/08/26 07:03:05;;;;;;;15.15;5.60;;;22.30;99.90;;;;;;5013989;28;20042;-72
2022/08/26 07:05:51;;;;;;;17.65;5.45;;;22.20;99.90;;;;;;4997687;28;20092;-72
2022/08/26 07:08:37;;;;;;;20.02;5.38;;;22.20;99.90;;;;;;4996952;28;20073;-72
2022/08/26 07:11:23;;;;;;;16.25;4.88;;;22.20;99.90;;;;;;4997471;28;20057;-72
2022/08/26 07:14:09;;;;;;;14.48;4.70;;;22.20;99.90;;;;;;4997347;28;20054;-72
2022/08/26 07:16:55;;;;;;;14.65;4.68;;;22.30;99.90;;;;;;4997037;28;20045;-72
2022/08/26 07:19:41;;;;;;;18.85;5.47;;;22.20;99.90;;;;;;4996627;28;20460;-72
2022/08/26 07:22:27;;;;;;;14.10;4.85;;;22.20;99.90;;;;;;5013570;28;20436;-72
2022/08/26 07:25:13;;;;;;;17.77;4.60;;;22.20;99.90;;;;;;4996044;28;20057;-72
2022/08/26 07:27:59;;;;;;;17.00;4.78;;;22.30;99.90;;;;;;4995735;28;20074;-72
2022/08/26 07:30:45;;;;;;;15.18;4.72;;;22.30;99.90;;;;;;4994861;28;20448;-72
2022/08/26 07:33:31;;;;;;;16.75;4.47;;;22.20;99.90;;;;;;4990275;28;20048;-72
2022/08/26 07:36:18;;;;;;;17.38;4.47;;;22.30;99.90;;;;;;4996696;28;20115;-73
2022/08/26 07:39:05;;;;;;;13.38;4.13;;;22.20;99.90;;;;;;4996007;28;20050;-72
2022/08/26 07:41:52;;;;;;;16.20;4.43;;;22.20;99.90;;;;;;4996537;28;20060;-72
2022/08/26 07:44:39;;;;;;;15.50;4.50;;;22.20;99.90;;;;;;5014208;28;20049;-72
2022/08/26 07:47:25;;;;;;;15.35;4.00;;;22.10;99.90;;;;;;5013383;28;20497;-72
2022/08/26 07:50:11;;;;;;;15.27;4.40;;;22.10;99.90;;;;;;5013701;28;20046;-72
2022/08/26 07:52:57;;;;;;;14.50;4.78;;;22.10;99.90;;;;;;4996801;28;20041;-72
2022/08/26 07:55:45;;;;;;;13.45;3.90;;;22.00;99.90;;;;;;5012671;28;20136;-72
2022/08/26 07:58:31;;;;;;;18.10;4.32;;;22.00;99.90;;;;;;4995848;28;20484;-73
2022/08/26 08:01:18;;;;;;;17.63;4.22;;;21.90;99.90;;;;;;5006733;28;20108;-72
2022/08/26 08:04:04;;;;;;;17.83;4.47;;;21.90;99.90;;;;;;5012090;28;20045;-72
2022/08/26 08:06:50;;;;;;;13.82;4.00;;;22.00;99.90;;;;;;5007368;28;20472;-72
2022/08/26 08:09:36;;;;;;;12.02;4.03;;;22.00;99.90;;;;;;5013628;28;20046;-72
2022/08/26 08:12:22;;;;;;;12.70;3.78;;;21.90;99.90;;;;;;4996063;28;20056;-72
2022/08/26 08:15:12;;;;;;;14.95;3.63;;;22.00;99.90;;;;;;4995485;28;20041;-72
2022/08/26 08:17:58;;;;;;;14.13;3.60;;;22.00;99.90;;;;;;5013454;28;20061;-72
2022/08/26 08:20:44;;;;;;;12.02;3.65;;;22.10;99.90;;;;;;4994786;28;20070;-72
2022/08/26 08:23:31;;;;;;;13.82;3.40;;;22.00;99.90;;;;;;5008631;28;20501;-72
2022/08/26 08:26:17;;;;;;;12.43;3.60;;;22.00;99.90;;;;;;4970481;28;20053;-72
2022/08/26 08:29:03;;;;;;;10.80;3.03;;;22.10;99.90;;;;;;4992515;28;20428;-72
2022/08/26 08:31:50;;;;;;;12.32;3.80;;;22.10;99.90;;;;;;5005639;28;20052;-72
2022/08/26 08:34:36;;;;;;;10.40;2.83;;;22.10;99.90;;;;;;5002474;28;20041;-72
2022/08/26 08:37:22;;;;;;;9.73;2.58;;;22.10;99.90;;;;;;5017010;28;20046;-72
2022/08/26 08:40:10;;;;;;;10.70;2.60;;;22.10;99.90;;;;;;4994093;28;20046;-72
2022/08/26 08:43:22;;;;;;;8.48;2.42;;;22.10;99.90;;;;;;4992732;28;20046;-72
2022/08/26 08:46:15;;;;;;;10.00;2.70;;;22.10;99.90;;;;;;4992801;28;20103;-72
2022/08/26 08:49:02;;;;;;;;;;;22.20;99.90;;;;;;4992362;28;20050;-72
2022/08/26 08:51:55;;;;;;;7.68;2.38;;;22.20;99.90;;;;;;5009842;28;19918;-72
2022/08/26 08:54:41;;;;;;;12.90;2.45;;;22.20;99.90;;;;;;4997196;28;20060;-72
2022/08/26 08:57:43;;;;;;;11.02;2.60;;;22.10;99.90;;;;;;5011692;28;20413;-72
2022/08/26 09:00:42;;;;;;;12.27;2.83;;;22.20;99.90;;;;;;5004097;28;20103;-72
2022/08/26 09:03:34;;;;;;;10.68;2.63;;;22.30;99.90;;;;;;4994332;28;20108;-72
2022/08/26 09:06:20;;;;;;;12.97;2.50;;;22.30;99.90;;;;;;5012719;28;20054;-72
2022/08/26 09:09:07;;;;;;;11.27;2.47;;;22.40;99.90;;;;;;4994052;28;20057;-72
2022/08/26 09:11:55;;;;;;;11.60;2.58;;;22.40;99.90;;;;;;4995014;28;20061;-72
2022/08/26 09:14:48;;;;;;;8.20;2.15;;;22.40;99.90;;;;;;5012514;28;20046;-72
2022/08/26 09:17:48;;;;;;;7.80;1.77;;;22.40;99.90;;;;;;5012314;28;20500;-73
2022/08/26 09:20:37;;;;;;;11.32;2.40;;;22.30;99.90;;;;;;5013365;28;20037;-72
2022/08/26 09:23:24;;;;;;;8.38;2.00;;;22.30;99.90;;;;;;4995141;28;20053;-72
2022/08/26 09:26:18;;;;;;;8.85;2.05;;;22.20;99.90;;;;;;4981001;28;20058;-72
2022/08/26 09:29:24;;;;;;;8.02;2.00;;;22.20;99.90;;;;;;4975626;28;20046;-72
2022/08/26 09:32:24;;;;;;;12.15;2.20;;;22.20;99.90;;;;;;4986066;28;20504;-72
2022/08/26 09:35:26;;;;;;;9.35;1.98;;;22.30;99.90;;;;;;5000624;28;20172;-72
2022/08/26 09:38:20;;;;;;;11.52;2.20;;;22.40;99.90;;;;;;4994225;28;20458;-72
2022/08/26 09:41:23;;;;;;;9.02;2.35;;;22.50;99.90;;;;;;4973609;28;20452;-72
2022/08/26 09:44:14;;;;;;;;;;;22.50;99.90;;;;;;4995921;28;20052;-72
2022/08/26 09:47:06;;;;;;;8.35;1.92;;;22.50;99.90;;;;;;4995488;28;19917;-72
2022/08/26 09:50:04;;;;;;;8.73;2.10;;;22.60;99.90;;;;;;4993571;28;20101;-72
2022/08/26 09:53:10;;;;;;;8.48;1.90;;;22.70;99.90;;;;;;4994271;28;20050;-72
2022/08/26 09:56:15;;;;;;;9.93;2.63;;;22.80;99.90;;;;;;4980132;28;20570;-72
2022/08/26 09:59:02;;;;;;;12.52;2.35;;;22.70;99.90;;;;;;4990502;28;20144;-72
2022/08/26 10:01:48;;;;;;;8.00;1.85;;;22.70;99.90;;;;;;5000610;28;20046;-72
2022/08/26 10:04:34;;;;;;;7.25;1.92;;;22.80;99.90;;;;;;5002614;28;20037;-72
2022/08/26 10:07:42;;;;;;;11.77;2.55;;;22.80;99.90;;;;;;4995028;28;20057;-72
2022/08/26 10:10:39;;;;;;;7.35;1.98;;;22.90;99.90;;;;;;4992549;28;20050;-73
2022/08/26 10:13:35;;;;;;;11.00;2.35;;;22.90;99.90;;;;;;4982997;28;20054;-72
2022/08/26 10:16:32;;;;;;;8.73;1.90;;;22.90;99.90;;;;;;5011937;28;20056;-72
2022/08/26 10:19:24;;;;;;;10.98;2.13;;;22.90;99.90;;;;;;5011499;28;20046;-72
2022/08/26 10:22:17;;;;;;;11.83;2.10;;;22.90;99.90;;;;;;4984414;28;20053;-72
2022/08/26 10:25:08;;;;;;;14.60;2.30;;;22.90;99.90;;;;;;4993742;28;20046;-72
2022/08/26 10:28:30;;;;;;;10.65;2.25;;;22.90;99.90;;;;;;4994777;28;20448;-72
2022/08/26 10:31:32;;;;;;;14.82;2.53;;;22.90;99.90;;;;;;4992700;28;20184;-72
2022/08/26 10:34:18;;;;;;;7.95;2.15;;;23.10;99.90;;;;;;4980335;28;20084;-73
2022/08/26 10:37:13;;;;;;;8.70;1.85;;;23.20;99.90;;;;;;4997214;28;20052;-72
2022/08/26 10:40:12;;;;;;;13.25;2.58;;;23.20;99.90;;;;;;4993604;28;20136;-73
2022/08/26 10:43:17;;;;;;;12.15;2.60;;;23.30;99.90;;;;;;4985325;28;20054;-73
2022/08/26 10:46:09;;;;;;;9.85;2.22;;;23.30;99.90;;;;;;4999294;28;20064;-72
2022/08/26 10:49:00;;;;;;;10.63;1.88;;;23.20;99.90;;;;;;4987949;28;20054;-72
2022/08/26 10:51:55;;;;;;;13.57;2.10;;;23.10;99.90;;;;;;4977211;28;20069;-72
2022/08/26 10:55:04;;;;;;;14.98;2.33;;;23.10;99.90;;;;;;4994989;28;20054;-73
2022/08/26 10:58:23;;;;;;;10.52;2.38;;;23.10;99.90;;;;;;4994173;28;20417;-72
2022/08/26 11:01:44;;;;;;;7.70;2.00;;;23.20;99.90;;;;;;4992900;28;20057;-72
2022/08/26 11:04:48;;;;;;;6.95;1.88;;;23.30;99.90;;;;;;5006097;28;20465;-72
2022/08/26 11:07:39;;;;;;;9.02;2.20;;;23.40;99.90;;;;;;4992270;28;20050;-73
2022/08/26 11:10:37;;;;;;;9.05;2.13;;;23.50;99.90;;;;;;4991837;28;20033;-73
2022/08/26 11:13:57;;;;;;;14.30;2.75;;;23.50;99.90;;;;;;4993571;28;20080;-72
2022/08/26 11:16:56;;;;;;;12.35;2.65;;;23.50;99.90;;;;;;4991375;28;20096;-72
2022/08/26 11:19:51;;;;;;;12.20;2.30;;;23.50;99.90;;;;;;4984933;28;20052;-73
2022/08/26 11:22:37;;;;;;;11.43;2.10;;;23.40;99.90;;;;;;4994604;28;20045;-72
2022/08/26 11:25:25;;;;;;;11.10;1.80;;;23.30;99.90;;;;;;5006893;28;20046;-72
2022/08/26 11:28:47;;;;;;;8.40;1.95;;;23.30;99.90;;;;;;4986498;28;20058;-72
2022/08/26 11:31:36;;;;;;;22.10;2.78;;;23.20;99.90;;;;;;4995940;28;20105;-73
2022/08/26 11:34:56;;;;;;;9.75;2.15;;;23.10;99.90;;;;;;5006687;28;20050;-73
2022/08/26 11:38:11;;;;;;;13.13;2.42;;;23.00;99.90;;;;;;5007431;28;20103;-72
2022/08/26 11:41:07;;;;;;;16.50;2.65;;;22.90;99.90;;;;;;4994819;28;20468;-72
2022/08/26 11:43:54;;;;;;;10.80;2.10;;;22.70;99.90;;;;;;4997082;28;20044;-73
2022/08/26 11:46:50;;;;;;;12.43;1.98;;;22.70;99.90;;;;;;5023976;28;20136;-72
2022/08/26 11:49:36;;;;;;;15.57;2.95;;;22.50;99.90;;;;;;4991799;28;20042;-72
2022/08/26 11:52:24;;;;;;;9.23;1.70;;;22.50;99.90;;;;;;5008113;28;20045;-73
2022/08/26 11:55:14;;;;;;;13.00;2.10;;;22.40;99.90;;;;;;5005861;28;20042;-72
2022/08/26 11:58:02;;;;;;;15.15;2.35;;;22.30;99.90;;;;;;5005760;28;20056;-72
2022/08/26 12:00:54;;;;;;;13.07;2.40;;;22.30;99.90;;;;;;5017798;28;20053;-72
2022/08/26 12:03:43;;;;;;;17.25;2.50;;;22.20;99.90;;;;;;5019873;28;20041;-73
2022/08/26 12:06:33;;;;;;;13.00;2.40;;;22.20;99.90;;;;;;5014575;28;20049;-72
2022/08/26 12:09:27;;;;;;;7.18;1.75;;;22.10;99.90;;;;;;4998658;28;20397;-72
2022/08/26 12:12:26;;;;;;;25.10;2.92;;;22.20;99.90;;;;;;5017303;28;20103;-73
2022/08/26 12:15:18;;;;;;;13.30;2.40;;;22.10;99.90;;;;;;5020370;28;20435;-74
2022/08/26 12:18:20;;;;;;;15.23;2.65;;;22.20;99.90;;;;;;5000020;28;20054;-74
2022/08/26 12:21:19;;;;;;;13.05;2.55;;;22.00;99.90;;;;;;5018750;28;20046;-73
2022/08/26 12:24:05;;;;;;;9.48;2.17;;;22.10;99.90;;;;;;5001514;28;20040;-73
2022/08/26 12:27:14;;;;;;;8.35;2.00;;;22.10;99.90;;;;;;4986097;28;20054;-74
2022/08/26 12:30:01;;;;;;;10.20;2.00;;;22.10;99.90;;;;;;5004061;28;20045;-73
2022/08/26 12:33:02;;;;;;;13.82;2.65;;;22.20;99.90;;;;;;5006836;28;20054;-73
2022/08/26 12:35:49;;;;;;;10.40;1.92;;;22.40;99.90;;;;;;4984763;28;20038;-73
2022/08/26 12:38:36;;;;;;;11.27;1.90;;;22.60;99.90;;;;;;5006041;28;20525;-73
2022/08/26 12:41:41;;;;;;;7.65;1.73;;;22.70;99.90;;;;;;4989826;28;20049;-73
2022/08/26 12:44:45;;;;;;;7.40;1.73;;;22.60;99.90;;;;;;5010722;28;20049;-73
2022/08/26 12:47:38;;;;;;;5.13;1.48;;;22.60;99.90;;;;;;4994111;28;20073;-73
2022/08/26 12:50:34;;;;;;;6.22;1.80;;;22.60;99.90;;;;;;4993675;28;20046;-74
2022/08/26 12:53:29;;;;;;;7.22;1.42;;;22.50;99.90;;;;;;4999291;28;20412;-73
2022/08/26 12:56:37;;;;;;;8.15;1.67;;;22.40;99.90;;;;;;5008217;28;20095;-74
2022/08/26 12:59:24;;;;;;;7.03;1.73;;;22.40;99.90;;;;;;4994957;28;20046;-73
2022/08/26 13:02:31;;;;;;;4.88;1.52;;;22.20;99.90;;;;;;4996628;28;20057;-74
2022/08/26 13:05:24;;;;;;;5.75;1.65;;;22.20;99.90;;;;;;5007649;28;20498;-73
2022/08/26 13:08:13;;;;;;;;;;;22.10;99.90;;;;;;5020366;28;20049;-73
2022/08/26 13:11:09;;;;;;;4.22;1.50;;;22.00;99.90;;;;;;5014352;28;19917;-75
2022/08/26 13:14:16;;;;;;;6.13;1.67;;;21.90;99.90;;;;;;5018128;28;20052;-74
2022/08/26 13:17:02;;;;;;;6.45;1.58;;;22.00;99.90;;;;;;5011907;28;20041;-74
2022/08/26 13:19:48;;;;;;;5.47;1.75;;;22.00;99.90;;;;;;5020270;28;20045;-74
2022/08/26 13:22:34;;;;;;;7.13;1.90;;;21.90;99.90;;;;;;5009636;28;20056;-74
2022/08/26 13:25:20;;;;;;;7.47;1.88;;;22.00;99.90;;;;;;4996034;28;20389;-74
2022/08/26 13:28:06;;;;;;;6.00;1.40;;;21.90;99.90;;;;;;4983735;28;20045;-73
2022/08/26 13:30:52;;;;;;;6.32;1.60;;;21.90;99.90;;;;;;5003469;28;20057;-74
2022/08/26 13:33:39;;;;;;;7.35;1.85;;;21.90;99.90;;;;;;5000215;28;20053;-75
2022/08/26 13:36:25;;;;;;;7.65;1.90;;;21.80;99.90;;;;;;5000326;28;20559;-75
2022/08/26 13:39:12;;;;;;;5.78;1.83;;;21.90;99.90;;;;;;4998838;28;20045;-75
2022/08/26 13:41:59;;;;;;;6.13;1.75;;;21.90;99.90;;;;;;5011364;28;20080;-74
2022/08/26 13:44:48;;;;;;;6.85;1.60;;;21.80;99.90;;;;;;5011709;28;20053;-75
2022/08/26 13:47:34;;;;;;;10.45;1.80;;;21.90;99.90;;;;;;5003257;28;20565;-75
2022/08/26 13:50:20;;;;;;;5.95;1.95;;;22.10;99.90;;;;;;4996721;28;20045;-75
2022/08/26 13:53:06;;;;;;;8.30;1.50;;;22.20;99.90;;;;;;4998559;28;20050;-75
2022/08/26 13:55:52;;;;;;;6.80;2.17;;;22.30;99.90;;;;;;5003766;28;20092;-75
2022/08/26 13:58:38;;;;;;;6.13;1.58;;;22.50;99.90;;;;;;4999013;28;20050;-75
2022/08/26 14:01:25;;;;;;;4.15;1.60;;;22.40;99.90;;;;;;5009881;28;20042;-74
2022/08/26 14:04:11;;;;;;;7.18;1.80;;;22.40;99.90;;;;;;5001003;28;20414;-74
2022/08/26 14:06:57;;;;;;;8.30;2.00;;;22.40;99.90;;;;;;5002900;28;20046;-75
2022/08/26 14:09:42;;;;;;;9.55;1.88;;;22.30;99.90;;;;;;4982987;28;20140;-75
2022/08/26 14:12:28;;;;;;;9.55;2.78;;;22.10;99.90;;;;;;4989603;28;20071;-74
2022/08/26 14:15:16;;;;;;;7.35;1.73;;;22.00;99.90;;;;;;5022138;28;20050;-74
2022/08/26 14:18:05;;;;;;;7.55;1.73;;;22.00;99.90;;;;;;5015551;28;20050;-75
2022/08/26 14:20:51;;;;;;;4.72;1.75;;;22.00;99.90;;;;;;4984694;28;20046;-74
2022/08/26 14:23:37;;;;;;;4.53;1.70;;;22.00;99.90;;;;;;4994159;28;20496;-74
2022/08/26 14:26:23;;;;;;;7.82;2.10;;;22.00;99.90;;;;;;5017675;28;20053;-75
2022/08/26 14:29:09;;;;;;;9.82;1.75;;;22.00;99.90;;;;;;5016284;28;20049;-75
2022/08/26 14:31:56;;;;;;;6.38;1.73;;;22.00;99.90;;;;;;4997789;28;20054;-75
2022/08/26 14:34:42;;;;;;;9.50;2.03;;;21.90;99.90;;;;;;5000695;28;20399;-74